Time;durP1;ratioP1;P1;durP2;ratioP2;P2;SDS_P1;SDS_P2;PMS_P1;PMS_P2;Temp;Humidity;BMP_temperature;BMP_pressure;BME280_temperature;BME280_humidity;BME280_pressure;Samples;Min_cycle;Max_cycle;Signal;HPM_P1;HPM_P2
2023/12/05 05:08:11;;;;;;;36.20;26.95;;;;;;;3.78;82.42;100537.34;5598548;31;81088;-56
2023/12/05 05:11:13;;;;;;;34.53;25.67;;;;;;;3.78;82.42;100537.34;5590012;31;33330;-56
2023/12/05 05:14:16;;;;;;;37.53;25.70;;;;;;;3.07;77.26;100549.66;5582431;31;33669;-56
2023/12/05 05:17:18;;;;;;;37.97;25.50;;;;;;;3.22;100.00;100558.00;5602117;31;33576;-56
2023/12/05 05:20:20;;;;;;;34.40;23.95;;;;;;;3.34;99.37;100547.41;5602126;31;34341;-55
2023/12/05 05:23:23;;;;;;;33.78;24.35;;;;;;;3.28;94.53;100543.06;5602849;31;33500;-56
2023/12/05 05:26:25;;;;;;;35.38;26.02;;;;;;;2.98;92.02;100556.31;5603294;31;33616;-56
2023/12/05 05:29:28;;;;;;;34.97;24.45;;;;;;;3.39;100.00;100546.75;5603292;31;34177;-56
2023/12/05 05:32:31;;;;;;;34.30;23.05;;;;;;;3.29;93.67;100560.56;5602121;31;33445;-56
2023/12/05 05:35:33;;;;;;;33.85;24.08;;;;;;;3.40;88.28;100557.09;5603241;31;34314;-56
2023/12/05 05:38:35;;;;;;;34.58;25.15;;;;;;;3.73;100.00;100545.97;5603159;31;34386;-56
2023/12/05 05:41:38;;;;;;;31.58;22.90;;;;;;;3.48;82.88;100553.34;5596483;31;34208;-56
2023/12/05 05:44:40;;;;;;;30.65;22.80;;;;;;;3.62;93.10;100549.44;5599658;31;33646;-56
2023/12/05 05:47:42;;;;;;;36.55;24.27;;;;;;;3.56;91.23;100555.63;5603120;31;34214;-56
2023/12/05 05:50:45;;;;;;;35.35;23.87;;;;;;;3.69;99.27;100557.28;5603064;31;33614;-56
2023/12/05 05:53:47;;;;;;;34.72;23.60;;;;;;;3.80;95.87;100547.69;5601586;31;34354;-56
2023/12/05 05:56:49;;;;;;;33.03;23.75;;;;;;;3.75;90.48;100548.41;5602483;31;33689;-56
2023/12/05 05:59:52;;;;;;;35.83;24.12;;;;;;;3.74;97.97;100547.59;5601951;31;33542;-56
2023/12/05 06:02:54;;;;;;;33.35;24.45;;;;;;;3.98;100.00;100550.22;5601423;31;33590;-56
2023/12/05 06:06:00;;;;;;;36.80;24.65;;;;;;;3.75;89.47;100546.53;5601562;31;33662;-56
2023/12/05 06:09:04;;;;;;;32.47;23.48;;;;;;;3.62;83.06;100544.12;5597353;31;32214;-56
2023/12/05 06:12:08;;;;;;;33.67;23.65;;;;;;;3.14;77.72;100541.63;5602873;31;34226;-56
2023/12/05 06:15:10;;;;;;;31.17;22.75;;;;;;;3.03;78.34;100554.59;5600298;31;34367;-55
2023/12/05 06:18:15;;;;;;;32.45;23.67;;;;;;;3.62;95.70;100554.72;5595018;31;34289;-56
2023/12/05 06:21:18;;;;;;;35.28;24.60;;;;;;;3.39;82.58;100549.41;5589783;31;34314;-55
2023/12/05 06:24:20;;;;;;;35.63;24.05;;;;;;;3.35;80.40;100550.91;5587600;31;34358;-56
2023/12/05 06:27:23;;;;;;;34.08;23.95;;;;;;;3.56;98.05;100560.94;5588923;31;33311;-56
2023/12/05 06:30:25;;;;;;;33.95;24.45;;;;;;;3.86;100.00;100557.38;5589394;31;34371;-56
2023/12/05 06:33:29;;;;;;;34.60;24.08;;;;;;;3.43;82.65;100561.16;5589504;31;34341;-56
2023/12/05 06:36:31;;;;;;;33.72;24.02;;;;;;;3.40;94.65;100561.59;5574359;31;34419;-56
2023/12/05 06:39:35;;;;;;;31.40;24.25;;;;;;;3.23;82.34;100558.81;5580878;31;34094;-56
2023/12/05 06:42:38;;;;;;;32.58;24.42;;;;;;;3.36;83.08;100563.09;5573221;31;33764;-56
2023/12/05 06:45:40;;;;;;;33.88;24.45;;;;;;;3.56;100.00;100560.94;5581538;31;34316;-56
2023/12/05 06:48:42;;;;;;;36.42;25.70;;;;;;;3.89;100.00;100563.03;5588792;31;34246;-56
2023/12/05 06:51:45;;;;;;;32.75;23.65;;;;;;;3.75;91.02;100548.41;5587976;31;33806;-56
2023/12/05 06:54:48;;;;;;;34.42;24.05;;;;;;;4.01;100.00;100552.44;5585310;31;34322;-56
2023/12/05 06:57:54;;;;;;;34.60;23.35;;;;;;;3.68;92.36;100547.72;5588734;31;33717;-56
2023/12/05 07:01:03;;;;;;;33.00;23.42;;;;;;;3.60;100.00;100546.19;5589026;31;33750;-56
2023/12/05 07:04:05;;;;;;;34.60;24.23;;;;;;;3.79;100.00;100543.44;5586924;31;33522;-56
2023/12/05 07:07:07;;;;;;;33.30;24.02;;;;;;;3.81;91.21;100551.94;5578326;31;34270;-56
2023/12/05 07:10:10;;;;;;;33.67;24.55;;;;;;;3.99;94.48;100559.78;5569719;32;34258;-56
2023/12/05 07:13:12;;;;;;;34.65;24.17;;;;;;;3.84;100.00;100567.41;5578500;31;33624;-56
2023/12/05 07:16:14;;;;;;;36.30;25.90;;;;;;;3.96;100.00;100565.56;5588333;31;33291;-56
2023/12/05 07:19:17;;;;;;;33.47;23.48;;;;;;;3.75;82.84;100572.25;5588788;31;33285;-56
2023/12/05 07:22:23;;;;;;;37.22;24.30;;;;;;;3.69;89.86;100567.88;5586528;31;33210;-56
2023/12/05 07:25:26;;;;;;;34.20;23.52;;;;;;;3.49;87.45;100576.16;5586365;31;33577;-56
2023/12/05 07:28:28;;;;;;;33.08;23.83;;;;;;;3.76;94.18;100587.94;5585679;31;33708;-56
2023/12/05 07:31:31;;;;;;;33.95;23.75;;;;;;;3.88;100.00;100579.19;5581587;31;33635;-56
2023/12/05 07:34:33;;;;;;;35.38;23.48;;;;;;;3.74;92.59;100576.75;5576937;31;33672;-56
2023/12/05 07:37:36;;;;;;;29.35;22.17;;;;;;;4.15;100.00;100590.13;5585062;31;34236;-56
2023/12/05 07:40:38;;;;;;;34.13;24.60;;;;;;;3.87;91.16;100585.50;5577116;31;33618;-56
2023/12/05 07:43:41;;;;;;;32.72;23.33;;;;;;;3.86;88.15;100589.22;5577804;31;33515;-56
2023/12/05 07:46:44;;;;;;;31.77;22.77;;;;;;;3.84;92.67;100591.28;5581478;31;34254;-56
2023/12/05 07:49:46;;;;;;;36.42;23.45;;;;;;;3.58;77.72;100596.00;5586994;31;33711;-56
2023/12/05 07:52:50;;;;;;;32.60;22.10;;;;;;;3.55;78.31;100585.03;5574777;31;33712;-56
2023/12/05 07:55:52;;;;;;;30.00;22.92;;;;;;;3.58;84.84;100582.75;5579271;31;33642;-56
2023/12/05 07:58:54;;;;;;;32.75;22.75;;;;;;;3.54;92.31;100581.56;5577024;31;33664;-56
2023/12/05 08:01:57;;;;;;;32.38;23.52;;;;;;;3.51;89.52;100571.44;5579342;31;33557;-56
2023/12/05 08:04:59;;;;;;;30.52;21.67;;;;;;;3.59;79.87;100572.94;5577421;31;33581;-56
2023/12/05 08:08:02;;;;;;;36.85;24.35;;;;;;;3.46;85.65;100563.34;5577920;31;34220;-56
2023/12/05 08:11:05;;;;;;;30.85;22.50;;;;;;;3.61;100.00;100576.97;5575911;31;33649;-56
2023/12/05 08:14:08;;;;;;;34.08;23.50;;;;;;;3.58;77.37;100573.97;5578599;31;33320;-56
2023/12/05 08:17:11;;;;;;;32.97;22.35;;;;;;;4.10;100.00;100576.72;5582485;31;33722;-56
2023/12/05 08:20:13;;;;;;;32.42;23.48;;;;;;;3.69;82.58;100563.38;5572781;31;33571;-56
2023/12/05 08:23:16;;;;;;;29.10;22.48;;;;;;;4.14;88.94;100570.75;5587839;31;34294;-56
2023/12/05 08:26:18;;;;;;;33.85;22.50;;;;;;;4.08;82.34;100569.03;5582787;31;33713;-56
2023/12/05 08:29:21;;;;;;;30.65;22.67;;;;;;;4.11;88.98;100568.56;5580249;31;34309;-56
2023/12/05 08:32:23;;;;;;;31.92;22.52;;;;;;;4.28;96.97;100573.16;5577256;31;33663;-56
2023/12/05 08:35:28;;;;;;;31.55;23.17;;;;;;;4.45;100.00;100572.19;5577476;31;35915;-56
2023/12/05 08:38:31;;;;;;;26.02;20.67;;;;;;;4.31;85.34;100572.69;5578894;31;33520;-56
2023/12/05 08:41:34;;;;;;;31.73;23.77;;;;;;;4.14;86.59;100577.88;5586359;31;33575;-56
2023/12/05 08:44:36;;;;;;;32.53;23.12;;;;;;;3.71;74.89;100577.22;5587699;31;33699;-56
2023/12/05 08:47:39;;;;;;;34.13;23.73;;;;;;;4.00;100.00;100575.47;5571401;31;33784;-56
2023/12/05 08:50:41;;;;;;;31.87;21.42;;;;;;;4.18;99.79;100566.59;5572870;31;33838;-56
2023/12/05 08:53:44;;;;;;;35.03;24.00;;;;;;;4.81;100.00;100570.22;5576408;31;34297;-56
2023/12/05 08:56:46;;;;;;;32.58;22.90;;;;;;;4.53;100.00;100563.03;5587140;31;34472;-56
2023/12/05 08:59:49;;;;;;;32.58;24.20;;;;;;;4.44;92.82;100559.97;5587462;31;33398;-56
2023/12/05 09:02:55;;;;;;;31.65;22.20;;;;;;;4.69;100.00;100567.59;5578361;31;33825;-56
2023/12/05 09:05:57;;;;;;;33.20;24.55;;;;;;;4.73;100.00;100570.59;5577361;31;34383;-56
2023/12/05 09:09:00;;;;;;;32.85;23.67;;;;;;;4.70;98.23;100569.22;5571294;31;34293;-56
2023/12/05 09:12:03;;;;;;;31.65;22.62;;;;;;;4.84;100.00;100564.44;5575623;31;34349;-56
2023/12/05 09:15:05;;;;;;;31.85;22.37;;;;;;;4.87;98.74;100571.12;5567229;32;33770;-56
2023/12/05 09:18:10;;;;;;;33.05;24.25;;;;;;;4.33;78.29;100573.25;5567912;31;34067;-56
2023/12/05 09:21:12;;;;;;;33.53;22.73;;;;;;;4.34;100.00;100570.38;5576792;31;34054;-56
2023/12/05 09:24:15;;;;;;;32.83;23.05;;;;;;;4.36;84.95;100570.13;5574930;31;33677;-56
2023/12/05 09:27:17;;;;;;;32.28;22.45;;;;;;;4.61;97.81;100568.00;5574232;31;33208;-56
2023/12/05 09:30:20;;;;;;;31.20;22.30;;;;;;;4.64;93.89;100569.37;5574876;31;33593;-56
2023/12/05 09:33:22;;;;;;;34.55;23.77;;;;;;;4.42;79.13;100563.88;5566937;32;33648;-56
2023/12/05 09:36:25;;;;;;;34.25;24.05;;;;;;;4.32;78.15;100556.53;5576578;31;33112;-56
2023/12/05 09:39:29;;;;;;;33.40;23.55;;;;;;;4.40;80.62;100555.34;5586444;31;33220;-56
2023/12/05 09:42:34;;;;;;;;;;;;;;;4.32;83.46;100550.41;5586665;31;34270;-56
2023/12/05 09:45:39;;;;;;;30.73;23.48;;;;;;;4.19;80.99;100543.50;5581165;31;34569;-56
2023/12/05 09:48:47;;;;;;;32.58;23.87;;;;;;;4.43;81.40;100538.94;5578525;31;33385;-56
2023/12/05 09:51:50;;;;;;;36.13;23.77;;;;;;;4.61;90.71;100537.97;5585290;31;32777;-56
2023/12/05 09:54:53;;;;;;;35.30;23.62;;;;;;;4.58;100.00;100536.59;5587504;31;33580;-56
2023/12/05 09:57:57;;;;;;;31.85;23.38;;;;;;;4.31;80.95;100533.69;5573237;31;33986;-56
2023/12/05 10:01:01;;;;;;;30.83;22.62;;;;;;;4.51;94.58;100530.62;5586929;31;33155;-56
2023/12/05 10:04:09;;;;;;;31.27;22.25;;;;;;;4.80;92.49;100533.25;5584167;31;34264;-56
2023/12/05 10:07:13;;;;;;;31.65;23.35;;;;;;;4.56;90.14;100520.09;5585742;31;33536;-56
2023/12/05 10:10:21;;;;;;;37.15;24.50;;;;;;;4.70;96.85;100521.44;5587116;31;34440;-56
2023/12/05 10:13:24;;;;;;;32.92;23.27;;;;;;;4.57;88.09;100510.25;5581814;31;32888;-56
2023/12/05 10:16:27;;;;;;;33.38;23.70;;;;;;;4.57;84.65;100504.94;5572693;31;34336;-56
2023/12/05 10:19:30;;;;;;;34.20;24.08;;;;;;;4.63;88.90;100506.66;5575025;31;33865;-56
2023/12/05 10:22:33;;;;;;;32.75;24.20;;;;;;;5.01;100.00;100489.28;5584297;31;33067;-56
2023/12/05 10:25:36;;;;;;;34.95;25.00;;;;;;;5.27;99.53;100487.84;5585433;31;34295;-56
2023/12/05 10:28:49;;;;;;;33.88;24.52;;;;;;;5.03;88.00;100487.97;5585849;31;34268;-55
2023/12/05 10:31:54;;;;;;;42.75;25.12;;;;;;;5.02;87.62;100481.06;5576049;31;34414;-56
2023/12/05 10:34:56;;;;;;;34.80;24.15;;;;;;;5.00;89.65;100483.16;5575949;31;33689;-56
2023/12/05 10:38:04;;;;;;;33.45;24.30;;;;;;;4.99;97.44;100480.75;5581372;31;33674;-56
2023/12/05 10:41:07;;;;;;;30.65;23.17;;;;;;;5.28;97.70;100476.16;5582770;31;33719;-56
2023/12/05 10:44:09;;;;;;;32.97;23.77;;;;;;;4.74;74.40;100473.16;5584851;31;33318;-56
2023/12/05 10:47:13;;;;;;;35.83;24.90;;;;;;;4.98;99.39;100466.66;5571985;31;33560;-56
2023/12/05 10:50:18;;;;;;;33.60;24.27;;;;;;;5.23;100.00;100468.94;5579121;31;33604;-56
2023/12/05 10:53:20;;;;;;;33.95;25.52;;;;;;;5.02;90.02;100465.13;5572263;31;33341;-56
2023/12/05 10:56:23;;;;;;;34.83;23.48;;;;;;;5.39;100.00;100459.31;5584861;31;33621;-56
2023/12/05 10:59:28;;;;;;;32.67;24.40;;;;;;;5.45;95.33;100458.34;5579518;31;33324;-56
2023/12/05 11:02:31;;;;;;;34.33;24.58;;;;;;;5.40;92.38;100456.41;5580998;31;34286;-56
2023/12/05 11:05:35;;;;;;;33.92;25.42;;;;;;;5.28;97.70;100465.53;5584610;31;34433;-56
2023/12/05 11:08:37;;;;;;;35.05;24.25;;;;;;;5.22;78.10;100455.88;5586740;31;33689;-56
2023/12/05 11:11:40;;;;;;;33.10;25.45;;;;;;;5.16;93.37;100455.78;5588499;31;33635;-56
2023/12/05 11:14:45;;;;;;;35.55;25.50;;;;;;;4.99;82.79;100462.12;5581214;31;33688;-56
2023/12/05 11:17:53;;;;;;;36.53;25.92;;;;;;;5.34;100.00;100457.37;5579357;31;33782;-56
2023/12/05 11:21:20;;;;;;;35.33;25.12;;;;;;;5.31;100.00;100462.38;5579709;31;33721;-56
2023/12/05 11:24:50;;;;;;;38.97;26.00;;;;;;;5.51;96.64;100460.03;5576459;31;34305;-56
2023/12/05 11:28:17;;;;;;;33.88;24.10;;;;;;;5.18;73.94;100456.34;5572147;31;33252;-56
2023/12/05 11:31:36;;;;;;;36.47;25.88;;;;;;;4.89;73.19;100450.28;5587893;31;32271;-58
2023/12/05 11:35:16;;;;;;;35.60;24.83;;;;;;;5.24;87.81;100456.44;5579827;31;34287;-58
2023/12/05 11:38:22;;;;;;;33.50;24.12;;;;;;;5.02;81.99;100453.69;5571796;31;33876;-58
2023/12/05 11:41:24;;;;;;;38.17;25.70;;;;;;;5.27;96.61;100446.13;5584114;31;34430;-58
2023/12/05 11:44:34;;;;;;;32.83;23.25;;;;;;;4.76;76.71;100447.16;5582636;31;33554;-56
2023/12/05 11:47:37;;;;;;;43.30;28.83;;;;;;;5.00;87.98;100447.81;5576236;31;32178;-56
2023/12/05 11:50:40;;;;;;;38.30;26.55;;;;;;;4.98;93.05;100448.06;5571466;31;33723;-56
2023/12/05 11:53:43;;;;;;;37.80;24.70;;;;;;;5.23;100.00;100460.13;5577190;31;33162;-56
2023/12/05 11:56:45;;;;;;;33.42;24.65;;;;;;;5.31;99.46;100459.72;5573515;31;33722;-56
2023/12/05 11:59:50;;;;;;;35.15;23.90;;;;;;;5.55;94.95;100455.81;5579536;31;34323;-56
2023/12/05 12:02:57;;;;;;;35.40;24.25;;;;;;;5.32;84.93;100453.34;5583633;31;35882;-56
2023/12/05 12:06:02;;;;;;;34.85;25.10;;;;;;;5.61;97.74;100454.03;5580712;31;33751;-56
2023/12/05 12:09:05;;;;;;;32.67;23.08;;;;;;;5.72;86.75;100460.28;5569092;31;33686;-56
2023/12/05 12:12:08;;;;;;;36.78;25.98;;;;;;;5.21;82.54;100449.75;5579520;31;34297;-56
2023/12/05 12:15:12;;;;;;;35.47;25.05;;;;;;;5.16;89.65;100447.81;5582758;31;34214;-56
2023/12/05 12:18:24;;;;;;;37.38;25.48;;;;;;;5.00;95.73;100437.19;5573545;31;33242;-56
2023/12/05 12:21:34;;;;;;;35.85;25.15;;;;;;;5.13;90.19;100443.00;5574999;31;33734;-56
2023/12/05 12:24:37;;;;;;;39.05;25.35;;;;;;;5.30;94.32;100442.19;5580856;31;33571;-56
2023/12/05 12:27:40;;;;;;;32.97;23.55;;;;;;;4.85;74.06;100438.53;5571812;31;33366;-56
2023/12/05 12:30:44;;;;;;;34.15;25.60;;;;;;;5.35;94.87;100437.72;5582632;31;34370;-56
2023/12/05 12:33:47;;;;;;;35.15;25.88;;;;;;;5.54;94.22;100434.81;5572476;31;33629;-56
2023/12/05 12:36:51;;;;;;;36.65;25.85;;;;;;;5.22;89.60;100431.94;5572320;31;33998;-56
2023/12/05 12:39:54;;;;;;;34.38;25.65;;;;;;;5.03;79.99;100429.53;5576162;31;31782;-56
2023/12/05 12:42:56;;;;;;;36.70;24.60;;;;;;;5.11;97.31;100431.78;5569854;31;34311;-56
2023/12/05 12:45:59;;;;;;;33.83;24.80;;;;;;;5.12;81.42;100436.06;5587265;31;34365;-56
2023/12/05 12:49:06;;;;;;;34.88;25.90;;;;;;;5.46;100.00;100435.22;5586492;31;33846;-56
2023/12/05 12:52:08;;;;;;;;;;;;;;;5.56;100.00;100438.84;5586787;31;33347;-56
2023/12/05 12:55:11;;;;;;;35.83;25.67;;;;;;;5.47;95.45;100432.31;5580929;31;33917;-56
2023/12/05 12:58:14;;;;;;;38.17;26.98;;;;;;;5.40;89.67;100431.69;5583573;31;33622;-56
2023/12/05 13:01:17;;;;;;;34.00;25.30;;;;;;;5.44;87.69;100424.84;5579443;31;33995;-56
2023/12/05 13:04:19;;;;;;;34.28;25.12;;;;;;;5.33;95.79;100415.91;5567508;32;33635;-56
2023/12/05 13:07:25;;;;;;;37.58;26.40;;;;;;;5.56;98.19;100425.53;5584735;31;33710;-56
2023/12/05 13:10:28;;;;;;;35.83;27.13;;;;;;;5.84;100.00;100421.09;5586969;31;34345;-56
2023/12/05 13:13:30;;;;;;;35.53;26.80;;;;;;;5.90;95.94;100428.09;5586544;31;34446;-56
2023/12/05 13:16:32;;;;;;;35.40;26.77;;;;;;;5.95;98.09;100422.84;5585702;31;33605;-56
2023/12/05 13:19:35;;;;;;;36.22;27.02;;;;;;;5.76;76.77;100427.66;5585624;31;33753;-56
2023/12/05 13:22:38;;;;;;;34.97;25.65;;;;;;;5.58;93.48;100430.59;5586193;31;33700;-56
2023/12/05 13:25:41;;;;;;;35.42;27.15;;;;;;;5.51;86.73;100429.97;5586584;31;33675;-56
2023/12/05 13:28:47;;;;;;;38.10;26.77;;;;;;;5.26;74.89;100430.41;5587506;31;33755;-56
2023/12/05 13:31:50;;;;;;;41.95;27.33;;;;;;;5.12;78.70;100417.44;5589883;31;33631;-56
2023/12/05 13:34:52;;;;;;;34.53;25.02;;;;;;;5.13;90.93;100421.72;5589482;31;33627;-56
2023/12/05 13:37:55;;;;;;;33.58;25.30;;;;;;;5.21;76.22;100417.84;5582499;31;33620;-56
2023/12/05 13:40:57;;;;;;;37.28;26.55;;;;;;;5.63;93.24;100415.53;5585388;31;33758;-56
2023/12/05 13:44:01;;;;;;;36.05;26.15;;;;;;;5.18;76.35;100413.81;5585812;31;34309;-56
2023/12/05 13:47:03;;;;;;;34.67;26.23;;;;;;;5.25;89.35;100415.50;5586177;31;33627;-56
2023/12/05 13:50:06;;;;;;;36.00;25.80;;;;;;;5.53;94.61;100418.06;5569908;32;33652;-56
2023/12/05 13:53:09;;;;;;;33.78;25.92;;;;;;;5.48;87.43;100415.31;5570004;32;33845;-56
2023/12/05 13:56:11;;;;;;;38.67;26.77;;;;;;;5.52;92.12;100407.63;5574779;31;33711;-56
2023/12/05 13:59:14;;;;;;;36.47;27.00;;;;;;;5.65;85.53;100402.75;5588553;31;33438;-56
2023/12/05 14:02:16;;;;;;;38.72;27.17;;;;;;;5.68;99.66;100401.47;5588760;31;34366;-56
2023/12/05 14:05:19;;;;;;;37.15;26.65;;;;;;;5.62;95.55;100413.09;5587617;31;33669;-56
2023/12/05 14:08:21;;;;;;;35.72;25.20;;;;;;;5.53;93.01;100419.87;5588449;31;33706;-56
2023/12/05 14:11:25;;;;;;;33.83;25.77;;;;;;;5.65;94.31;100418.72;5589597;31;33770;-56
2023/12/05 14:14:27;;;;;;;38.47;26.52;;;;;;;5.30;82.22;100408.44;5588731;31;33666;-56
2023/12/05 14:17:29;;;;;;;33.60;25.55;;;;;;;5.28;82.40;100423.00;5589697;31;33899;-56
2023/12/05 14:20:32;;;;;;;38.03;26.60;;;;;;;5.55;83.96;100423.09;5589838;31;33708;-56
2023/12/05 14:23:35;;;;;;;38.30;27.08;;;;;;;5.75;100.00;100423.37;5588575;31;34163;-56
2023/12/05 14:26:37;;;;;;;38.08;27.08;;;;;;;5.70;87.45;100427.84;5589536;31;34294;-56
2023/12/05 14:29:40;;;;;;;39.80;28.30;;;;;;;5.67;84.33;100438.97;5589170;31;33744;-56
2023/12/05 14:32:42;;;;;;;38.20;26.37;;;;;;;5.70;97.85;100425.19;5589639;31;34375;-56
2023/12/05 14:35:45;;;;;;;37.75;27.50;;;;;;;5.55;81.53;100434.53;5586240;31;33615;-56
2023/12/05 14:38:48;;;;;;;41.28;27.15;;;;;;;5.56;98.33;100424.72;5588563;31;33638;-56
2023/12/05 14:42:05;;;;;;;46.55;26.50;;;;;;;5.71;99.47;100437.41;5589447;31;34370;-56
2023/12/05 14:45:08;;;;;;;36.10;25.83;;;;;;;5.54;84.27;100437.47;5589229;31;33750;-56
2023/12/05 14:48:13;;;;;;;41.95;25.88;;;;;;;5.62;86.56;100432.50;5589166;31;34299;-56
2023/12/05 14:51:16;;;;;;;39.35;26.87;;;;;;;5.65;96.88;100429.34;5588912;31;34010;-57
2023/12/05 14:54:18;;;;;;;37.38;25.98;;;;;;;5.70;100.00;100436.63;5589162;31;34209;-56
2023/12/05 14:57:21;;;;;;;38.10;26.17;;;;;;;5.58;90.64;100442.03;5589355;31;33676;-56
2023/12/05 15:00:26;;;;;;;34.37;24.67;;;;;;;5.29;87.48;100437.88;5589109;31;34493;-56
2023/12/05 15:03:29;;;;;;;38.08;25.35;;;;;;;5.53;84.37;100434.00;5588961;31;34332;-56
2023/12/05 15:06:31;;;;;;;34.80;24.45;;;;;;;5.47;93.27;100440.28;5589095;31;33594;-56
2023/12/05 15:09:34;;;;;;;37.25;25.27;;;;;;;5.15;92.14;100438.22;5588672;31;33684;-56
2023/12/05 15:12:37;;;;;;;38.65;25.98;;;;;;;5.26;79.83;100443.69;5588032;31;34359;-56
2023/12/05 15:15:40;;;;;;;36.55;25.70;;;;;;;5.39;84.79;100440.69;5589302;31;34530;-56
2023/12/05 15:18:42;;;;;;;38.53;25.73;;;;;;;5.29;79.78;100435.22;5589139;31;34554;-56
2023/12/05 15:21:45;;;;;;;37.33;24.67;;;;;;;5.41;91.80;100446.59;5588856;31;34302;-56
2023/12/05 15:24:47;;;;;;;39.05;26.42;;;;;;;5.62;93.68;100437.03;5588855;31;34332;-56
2023/12/05 15:27:50;;;;;;;37.90;25.67;;;;;;;5.52;86.35;100444.88;5589111;31;33391;-56
2023/12/05 15:30:54;;;;;;;38.53;25.58;;;;;;;5.31;85.87;100441.13;5589193;31;33593;-56
2023/12/05 15:33:56;;;;;;;35.42;25.73;;;;;;;5.75;100.00;100444.66;5589123;31;34374;-56
2023/12/05 15:36:59;;;;;;;37.40;26.10;;;;;;;5.96;100.00;100443.09;5588762;31;34313;-56
2023/12/05 15:40:01;;;;;;;38.20;26.40;;;;;;;5.86;88.41;100434.94;5589121;31;33776;-56
2023/12/05 15:43:04;;;;;;;37.03;25.85;;;;;;;5.69;86.99;100445.62;5588595;31;33622;-56
2023/12/05 15:46:07;;;;;;;38.88;26.35;;;;;;;5.60;90.69;100442.59;5588663;31;34371;-56
2023/12/05 15:49:09;;;;;;;36.72;25.25;;;;;;;5.58;95.04;100435.91;5588483;31;33639;-56
2023/12/05 15:52:12;;;;;;;35.22;25.17;;;;;;;5.36;88.58;100435.88;5587915;31;34362;-56
2023/12/05 15:55:15;;;;;;;37.03;26.33;;;;;;;5.34;92.11;100440.63;5588405;31;34384;-56
2023/12/05 15:58:17;;;;;;;36.60;26.00;;;;;;;5.62;94.31;100439.69;5588403;31;33726;-56
2023/12/05 16:01:20;;;;;;;37.83;25.30;;;;;;;5.51;93.40;100440.59;5587254;31;33732;-56
2023/12/05 16:04:24;;;;;;;39.00;26.30;;;;;;;5.50;96.06;100434.50;5588480;31;34347;-56
2023/12/05 16:07:27;;;;;;;45.58;26.58;;;;;;;5.25;78.09;100434.13;5588430;31;33884;-56
2023/12/05 16:10:30;;;;;;;37.10;26.40;;;;;;;5.50;91.30;100439.00;5588571;31;33620;-56
2023/12/05 16:13:32;;;;;;;40.22;27.33;;;;;;;5.90;100.00;100446.72;5587941;31;34773;-56
2023/12/05 16:16:38;;;;;;;38.95;26.92;;;;;;;5.72;100.00;100442.47;5588295;31;33584;-56
2023/12/05 16:19:42;;;;;;;41.60;26.65;;;;;;;5.62;78.88;100442.34;5588448;31;33681;-56
2023/12/05 16:22:46;;;;;;;41.65;28.25;;;;;;;5.19;89.67;100451.84;5588733;31;33614;-56
2023/12/05 16:25:48;;;;;;;39.95;25.88;;;;;;;5.40;81.38;100440.47;5588114;31;33737;-56
2023/12/05 16:28:51;;;;;;;40.20;27.27;;;;;;;5.56;100.00;100452.12;5588351;31;33819;-56
2023/12/05 16:31:53;;;;;;;40.65;26.67;;;;;;;5.54;95.03;100456.88;5588145;31;33781;-56
2023/12/05 16:34:55;;;;;;;38.90;26.02;;;;;;;5.64;100.00;100448.22;5588492;31;34413;-56
2023/12/05 16:37:58;;;;;;;36.17;26.08;;;;;;;5.77;92.46;100442.56;5588480;31;34369;-56
2023/12/05 16:41:00;;;;;;;36.67;25.88;;;;;;;5.79;92.19;100444.97;5587704;31;34465;-56
2023/12/05 16:44:03;;;;;;;42.70;25.88;;;;;;;5.76;96.48;100443.63;5588432;31;33726;-56
2023/12/05 16:47:05;;;;;;;36.10;25.73;;;;;;;5.93;100.00;100443.59;5588345;31;33580;-56
